Terminal Aerodrome Forecast
Issued by NWS Upton, NY

Home | Current Version | Previous Version | Text Only | Print | Product List | Glossary On
Versions: 1 2 3 4 5 6 7 8 9 10 11 12 13 14 15 16 17 18 19 20 21 22 23 24 25 26 27 28 29
000
FTUS41 KOKX 261256 AAA
TAFJFK
TAF AMD
KJFK 261256Z 2613/2718 05005KT 6SM HZ OVC005
     FM261500 07006KT P6SM SCT010
     FM261600 07007KT P6SM FEW020 BKN250
     FM261800 13008KT P6SM FEW025 BKN250
     FM270300 09005KT 5SM BR SCT008
     FM270600 05005KT 3SM BR BKN008
     FM271300 04006KT 6SM HZ SCT015=

USA.gov is the U.S. government's official web portal to all federal, state and local government web resources and services.